createdAt,value
2022-11-12T00:24:20.490Z,10.33
2022-11-12T00:27:05.985Z,8.83
2022-11-12T00:29:51.231Z,9.13
2022-11-12T00:32:37.612Z,10.03
2022-11-12T00:35:22.742Z,9.23
2022-11-12T00:38:07.972Z,10.30
2022-11-12T02:07:44.824Z,9.07
2022-11-12T02:10:30.657Z,7.03
2022-11-12T02:13:34.260Z,7.57
2022-11-12T02:16:19.325Z,8.33
2022-11-12T02:19:06.989Z,8.23
2022-11-12T02:21:52.223Z,9.33
2022-11-12T02:24:37.106Z,7.87
2022-11-12T02:27:23.059Z,10.30
2022-11-12T02:30:08.706Z,9.07
2022-11-12T02:32:53.854Z,7.23
2022-11-12T02:35:39.123Z,8.57
2022-11-12T02:38:24.731Z,9.23
2022-11-12T02:41:11.009Z,7.43
2022-11-12T02:43:58.558Z,9.50
2022-11-12T02:46:45.504Z,6.60
2022-11-12T02:49:33.590Z,8.00
2022-11-12T02:52:21.246Z,7.90
2022-11-12T02:55:11.686Z,7.83
2022-11-12T02:57:59.626Z,7.23
2022-11-12T03:00:45.972Z,7.00
2022-11-12T03:03:33.150Z,6.97
2022-11-12T03:06:19.787Z,7.80
2022-11-12T03:09:05.715Z,7.27
2022-11-12T03:11:51.750Z,7.63
2022-11-12T03:14:38.310Z,6.80
2022-11-12T03:17:24.461Z,7.57
2022-11-12T03:20:11.128Z,9.20
2022-11-12T03:23:01.619Z,6.30
2022-11-12T03:25:46.952Z,6.63
2022-11-12T03:28:32.177Z,7.00
2022-11-12T03:31:17.478Z,6.67
2022-11-12T03:34:02.927Z,6.40
2022-11-12T03:36:48.703Z,7.70
2022-11-12T03:39:34.122Z,7.10
2022-11-12T03:42:19.316Z,8.37
2022-11-12T03:45:05.126Z,7.23
2022-11-12T03:47:52.084Z,8.07
2022-11-12T03:50:36.923Z,7.27
2022-11-12T03:53:22.511Z,6.90
2022-11-12T03:56:08.855Z,7.03
2022-11-12T03:58:54.457Z,7.23
2022-11-12T04:01:40.033Z,7.43
2022-11-12T04:04:45.182Z,6.00
2022-11-12T04:07:48.727Z,5.97
2022-11-12T04:10:34.177Z,6.00
2022-11-12T04:13:28.264Z,7.40
2022-11-12T04:16:37.011Z,7.63
2022-11-12T04:19:40.529Z,5.90
2022-11-12T04:22:25.466Z,7.07
2022-11-12T04:25:29.366Z,7.03
2022-11-12T04:28:16.524Z,5.67
2022-11-12T04:31:01.623Z,5.83
2022-11-12T04:33:46.747Z,6.70
2022-11-12T04:36:32.144Z,6.63
2022-11-12T04:39:17.742Z,6.77
2022-11-12T04:42:21.459Z,5.43
2022-11-12T04:45:11.372Z,6.27
2022-11-12T04:47:58.565Z,5.97
2022-11-12T04:50:45.752Z,6.07
2022-11-12T04:53:31.220Z,6.77
2022-11-12T04:56:16.163Z,6.87
2022-11-12T04:59:01.455Z,5.50
2022-11-12T05:01:46.786Z,6.10
2022-11-12T05:04:32.152Z,6.47
2022-11-12T05:07:17.666Z,6.67
2022-11-12T05:10:03.083Z,6.77
2022-11-12T05:12:48.523Z,5.67
2022-11-12T05:15:33.785Z,6.20
2022-11-12T05:18:18.983Z,5.57
2022-11-12T05:21:24.171Z,6.93
2022-11-12T05:24:22.155Z,5.57
2022-11-12T05:27:17.438Z,5.27
2022-11-12T05:30:03.271Z,6.23
2022-11-12T05:32:48.664Z,5.30
2022-11-12T05:35:35.826Z,7.97
2022-11-12T05:38:23.173Z,6.77
2022-11-12T05:41:09.184Z,7.03
2022-11-12T05:43:54.405Z,6.20
2022-11-12T05:46:39.599Z,7.27
2022-11-12T05:49:24.904Z,6.47
2022-11-12T05:52:10.261Z,6.10
2022-11-12T05:54:55.595Z,7.17
2022-11-12T05:57:40.836Z,6.03
2022-11-12T06:00:26.302Z,6.63
2022-11-12T06:03:12.335Z,5.97
2022-11-12T06:05:57.658Z,7.47
2022-11-12T06:08:43.170Z,6.10
2022-11-12T06:11:28.296Z,7.27
2022-11-12T06:14:13.578Z,5.43
2022-11-12T06:16:58.615Z,6.30
2022-11-12T06:19:43.995Z,6.90
2022-11-12T06:22:29.060Z,13.77
2022-11-12T06:25:14.390Z,15.23
2022-11-12T06:27:59.724Z,9.23
2022-11-12T06:30:44.906Z,6.93
2022-11-12T06:33:30.262Z,8.13
2022-11-12T06:36:18.012Z,6.97
2022-11-12T06:39:03.661Z,6.10
2022-11-12T06:41:48.877Z,5.73
2022-11-12T06:44:34.190Z,6.20
2022-11-12T06:47:19.593Z,6.80
2022-11-12T06:50:05.249Z,7.47
2022-11-12T06:52:50.477Z,6.40
2022-11-12T06:55:35.793Z,9.33
2022-11-12T06:58:20.997Z,7.07
2022-11-12T07:01:11.849Z,8.10
2022-11-12T07:03:57.485Z,5.70
2022-11-12T07:06:42.764Z,5.40
2022-11-12T07:09:28.031Z,5.70
2022-11-12T07:12:13.221Z,8.80
2022-11-12T07:14:58.685Z,8.47
2022-11-12T07:17:47.019Z,7.30
2022-11-12T07:20:32.405Z,5.80
2022-11-12T07:23:17.854Z,6.20
2022-11-12T07:26:08.741Z,5.47
2022-11-12T07:28:56.534Z,4.90
2022-11-12T07:31:41.734Z,5.37
2022-11-12T07:34:27.075Z,6.67
2022-11-12T07:37:11.956Z,6.17
2022-11-12T07:39:57.201Z,7.83
2022-11-12T07:42:42.638Z,5.90
2022-11-12T07:45:28.044Z,6.23
2022-11-12T07:48:13.446Z,5.93
2022-11-12T07:51:12.095Z,6.47
2022-11-12T07:53:59.741Z,6.77
2022-11-12T07:56:45.068Z,6.07
2022-11-12T07:59:30.354Z,6.30
2022-11-12T08:02:15.681Z,7.07
2022-11-12T08:05:01.084Z,8.47
2022-11-12T08:07:46.554Z,7.70
2022-11-12T08:10:31.841Z,8.10
2022-11-12T08:13:17.056Z,11.23
2022-11-12T08:16:02.280Z,9.97
2022-11-12T08:18:47.828Z,10.60
2022-11-12T08:21:32.824Z,8.17
2022-11-12T08:24:17.976Z,7.40
2022-11-12T08:27:03.355Z,7.13
2022-11-12T08:29:48.531Z,6.90
2022-11-12T08:32:33.841Z,6.77
2022-11-12T08:35:19.029Z,6.13
2022-11-12T08:38:06.636Z,6.13
2022-11-12T08:40:51.521Z,6.13
2022-11-12T08:43:37.382Z,7.80
2022-11-12T08:46:22.306Z,5.40
2022-11-12T08:49:07.499Z,5.97
2022-11-12T08:51:52.779Z,8.10
2022-11-12T08:54:38.069Z,7.73
2022-11-12T08:57:23.147Z,6.33
2022-11-12T09:00:10.073Z,8.27
2022-11-12T09:02:55.079Z,9.20
2022-11-12T09:05:40.087Z,26.07
2022-11-12T09:08:25.889Z,14.63
2022-11-12T09:11:11.028Z,57.70
2022-11-12T09:13:56.438Z,18.47
2022-11-12T09:16:41.599Z,4.10
2022-11-12T09:19:26.659Z,22.10
2022-11-12T09:22:11.934Z,7.53
2022-11-12T09:24:56.949Z,15.73
2022-11-12T09:27:48.092Z,14.70
2022-11-12T09:30:33.640Z,9.20
2022-11-12T09:33:31.527Z,9.33
2022-11-12T09:36:17.719Z,5.37
2022-11-12T09:39:02.547Z,4.93
2022-11-12T09:41:47.810Z,4.83
2022-11-12T09:44:36.910Z,31.10
2022-11-12T09:47:30.415Z,17.27
2022-11-12T09:50:27.825Z,20.83
2022-11-12T09:53:16.551Z,5.87
2022-11-12T09:56:06.360Z,5.90
2022-11-12T09:58:51.980Z,4.97
2022-11-12T10:02:07.236Z,5.57
2022-11-12T10:05:16.762Z,6.13
2022-11-12T10:08:17.737Z,5.97
2022-11-12T10:11:10.691Z,6.30
2022-11-12T10:14:11.326Z,5.60
2022-11-12T10:17:06.112Z,5.50
2022-11-12T10:20:01.188Z,4.87
2022-11-12T10:23:02.839Z,4.77
2022-11-12T10:25:49.801Z,4.87
2022-11-12T10:28:42.386Z,4.90
2022-11-12T10:31:27.373Z,6.33
2022-11-12T10:34:19.891Z,6.13
2022-11-12T10:37:18.375Z,5.70
2022-11-12T10:40:24.700Z,5.40
2022-11-12T10:43:15.639Z,5.47
2022-11-12T10:46:17.863Z,4.90
2022-11-12T10:49:03.572Z,4.73
2022-11-12T10:51:57.318Z,4.97
2022-11-12T10:54:42.954Z,5.03
2022-11-12T10:57:28.037Z,6.43
2022-11-12T11:00:13.192Z,4.20
2022-11-12T11:02:59.216Z,5.20
2022-11-12T11:06:04.055Z,2.80
2022-11-12T11:08:51.020Z,3.00
2022-11-12T11:11:36.385Z,3.50
2022-11-12T11:14:35.461Z,3.10
2022-11-12T11:17:20.907Z,5.33
2022-11-12T11:20:32.135Z,3.53
2022-11-12T11:23:29.890Z,2.00
2022-11-12T11:26:41.544Z,3.50
2022-11-12T11:29:42.245Z,2.50
2022-11-12T11:32:37.212Z,4.43
2022-11-12T11:36:12.165Z,5.07
2022-11-12T11:39:04.154Z,2.60
2022-11-12T11:42:02.262Z,2.00
2022-11-12T11:45:27.618Z,3.17
2022-11-12T11:48:45.053Z,2.80
2022-11-12T11:51:56.080Z,2.30
2022-11-12T11:54:50.218Z,2.00
2022-11-12T11:58:16.033Z,2.57
2022-11-12T12:01:20.868Z,1.83
2022-11-12T12:04:07.398Z,3.07
2022-11-12T12:07:21.015Z,2.97
2022-11-12T12:11:06.755Z,2.47
2022-11-12T12:14:02.316Z,3.13
2022-11-12T12:17:31.866Z,2.67
2022-11-12T12:20:23.905Z,2.20
2022-11-12T12:23:39.856Z,3.10
2022-11-12T12:26:26.000Z,8.33
2022-11-12T12:29:52.729Z,11.57
2022-11-12T12:32:42.577Z,17.33
2022-11-12T12:35:44.774Z,3.37
2022-11-12T12:38:43.862Z,13.87
2022-11-12T12:41:53.723Z,2.10
2022-11-12T12:45:04.991Z,2.40
2022-11-12T12:47:50.485Z,2.80
2022-11-12T12:50:38.158Z,2.77
2022-11-12T12:53:29.721Z,3.33
2022-11-12T12:56:15.012Z,2.70
2022-11-12T12:59:03.777Z,2.07
2022-11-12T13:02:01.254Z,2.23
2022-11-12T13:04:52.592Z,2.07
2022-11-12T13:07:44.331Z,3.97
2022-11-12T13:10:41.590Z,3.10
2022-11-12T13:13:32.373Z,4.13
2022-11-12T13:16:52.260Z,4.33
2022-11-12T13:19:59.010Z,3.47
2022-11-12T13:22:43.946Z,2.73
2022-11-12T13:25:31.757Z,2.50
2022-11-12T13:28:17.186Z,3.23
2022-11-12T13:31:03.880Z,2.90
2022-11-12T13:33:49.056Z,3.40
2022-11-12T13:36:34.401Z,2.60
2022-11-12T13:39:20.340Z,2.47
2022-11-12T13:42:37.577Z,2.73
2022-11-12T13:45:24.558Z,3.83
2022-11-12T13:48:14.040Z,2.00
2022-11-12T13:51:03.031Z,2.13
2022-11-12T13:53:48.221Z,2.57
2022-11-12T13:56:35.295Z,2.37
2022-11-12T13:59:23.764Z,2.03
2022-11-12T14:02:24.024Z,2.93
2022-11-12T14:05:17.932Z,2.70
2022-11-12T14:08:38.726Z,2.93
2022-11-12T14:11:34.613Z,3.13
2022-11-12T14:14:58.442Z,4.50
2022-11-12T14:17:57.693Z,3.60
2022-11-12T14:20:43.182Z,5.53
2022-11-12T14:23:31.408Z,4.97
2022-11-12T14:26:37.938Z,6.23
2022-11-12T14:29:23.239Z,6.50
2022-11-12T14:32:09.367Z,7.87
2022-11-12T14:34:54.302Z,6.20
2022-11-12T14:37:43.241Z,6.77
2022-11-12T14:40:31.217Z,6.37
2022-11-12T14:43:37.475Z,6.90
2022-11-12T14:46:30.782Z,6.70
2022-11-12T14:49:26.121Z,6.80
2022-11-12T14:52:19.188Z,8.00
2022-11-12T14:55:11.523Z,8.50
2022-11-12T14:57:59.275Z,8.73
2022-11-12T15:00:53.219Z,8.40
2022-11-12T15:03:38.359Z,9.60
2022-11-12T15:06:31.944Z,7.93
2022-11-12T15:09:20.908Z,7.83
2022-11-12T15:12:21.454Z,7.33
2022-11-12T15:15:09.655Z,7.57
2022-11-12T15:17:59.377Z,7.43
2022-11-12T15:20:44.769Z,7.93
2022-11-12T15:23:30.004Z,7.83
2022-11-12T15:26:26.585Z,7.67
2022-11-12T15:29:15.230Z,10.70
2022-11-12T15:32:01.607Z,7.70
2022-11-12T15:34:48.162Z,8.23
2022-11-12T15:37:41.086Z,10.87
2022-11-12T15:40:26.505Z,12.50
2022-11-12T15:43:32.943Z,11.00
2022-11-12T15:46:17.899Z,11.70
2022-11-12T15:49:03.285Z,11.73
2022-11-12T15:51:48.624Z,12.47
2022-11-12T15:54:39.749Z,11.77
2022-11-12T15:57:28.735Z,12.17
2022-11-12T16:00:21.514Z,13.23
2022-11-12T16:03:14.012Z,13.20
2022-11-12T16:06:03.971Z,11.73
2022-11-12T16:08:52.555Z,12.43
2022-11-12T16:11:38.044Z,13.57
2022-11-12T16:14:24.993Z,10.93
2022-11-12T16:17:14.623Z,12.27
2022-11-12T16:20:01.167Z,12.30
2022-11-12T16:22:46.341Z,12.17
2022-11-12T16:25:33.592Z,13.20
2022-11-12T16:28:19.416Z,13.40
2022-11-12T16:31:05.588Z,15.30
2022-11-12T16:33:50.650Z,16.27
2022-11-12T16:36:36.164Z,16.50
2022-11-12T16:39:21.590Z,17.83
2022-11-12T16:42:10.063Z,21.60
2022-11-12T16:44:55.423Z,29.33
2022-11-12T16:47:54.402Z,33.40
2022-11-12T16:50:39.755Z,35.60
2022-11-12T16:53:25.279Z,31.50
2022-11-12T16:56:17.292Z,25.57
2022-11-12T16:59:03.051Z,23.53
2022-11-12T17:01:48.708Z,21.20
2022-11-12T17:04:33.978Z,23.87
2022-11-12T17:07:19.275Z,21.60
2022-11-12T17:10:05.012Z,21.83
2022-11-12T17:12:53.169Z,21.00
2022-11-12T17:15:38.824Z,20.53
2022-11-12T17:18:24.135Z,22.43
2022-11-12T17:21:14.896Z,21.63
2022-11-12T17:24:00.199Z,19.77
2022-11-12T17:26:46.066Z,18.63
2022-11-12T17:29:31.513Z,15.87
2022-11-12T17:32:16.801Z,14.33
2022-11-12T17:35:02.195Z,15.27
2022-11-12T17:37:48.036Z,13.90
2022-11-12T17:40:33.219Z,13.63
2022-11-12T17:43:18.585Z,14.93
2022-11-12T17:46:05.208Z,13.80
2022-11-12T17:48:50.351Z,12.97
2022-11-12T17:51:36.036Z,12.60
2022-11-12T17:54:21.450Z,12.17
2022-11-12T17:57:06.543Z,13.43
2022-11-12T17:59:51.773Z,13.83
2022-11-12T18:02:37.064Z,26.50
2022-11-12T18:05:22.501Z,37.00
2022-11-12T18:08:07.833Z,33.70
2022-11-12T18:10:53.253Z,19.53
2022-11-12T18:13:38.592Z,17.00
2022-11-12T18:16:24.802Z,19.10
2022-11-12T18:19:11.126Z,23.20
2022-11-12T18:21:57.033Z,17.73
2022-11-12T18:24:42.418Z,13.60
2022-11-12T18:27:27.410Z,12.53
2022-11-12T18:30:18.956Z,15.00
2022-11-12T18:33:04.822Z,12.87
2022-11-12T18:36:00.202Z,15.33
2022-11-12T18:38:46.948Z,13.93
2022-11-12T18:41:33.832Z,12.90
2022-11-12T18:44:23.257Z,12.70
2022-11-12T18:47:10.771Z,20.83
2022-11-12T18:49:56.106Z,16.40
2022-11-12T18:52:41.431Z,13.53
2022-11-12T18:55:26.826Z,13.23
2022-11-12T18:58:12.312Z,14.57
2022-11-12T19:01:05.340Z,13.93
2022-11-12T19:03:56.075Z,13.23
2022-11-12T19:06:41.273Z,12.17
2022-11-12T19:09:26.997Z,14.00
2022-11-12T19:12:12.188Z,12.07
2022-11-12T19:14:57.514Z,11.60
2022-11-12T19:17:42.941Z,11.30
2022-11-12T19:20:30.164Z,11.90
2022-11-12T19:23:15.555Z,11.73
2022-11-12T19:26:02.117Z,11.40
2022-11-12T19:28:47.194Z,10.50
2022-11-12T19:31:34.490Z,10.40
2022-11-12T19:34:19.394Z,9.50
2022-11-12T19:37:33.068Z,11.13
2022-11-12T19:40:11.060Z,10.90
2022-11-12T19:42:55.949Z,12.37
2022-11-12T19:45:41.428Z,19.00
2022-11-12T19:48:27.287Z,20.47
2022-11-12T19:51:13.594Z,14.07
2022-11-12T19:53:58.850Z,12.60
2022-11-12T19:56:44.064Z,11.63
2022-11-12T19:59:29.296Z,13.77
2022-11-12T20:02:14.759Z,13.27
2022-11-12T20:04:59.934Z,15.20
2022-11-12T20:07:48.486Z,20.40
2022-11-12T20:10:33.708Z,56.23
2022-11-12T20:13:18.988Z,44.57
2022-11-12T20:16:18.487Z,24.57
2022-11-12T20:19:08.634Z,33.40
2022-11-12T20:21:53.991Z,27.43
2022-11-12T20:24:39.219Z,21.77
2022-11-12T20:27:24.641Z,22.33
2022-11-12T20:30:10.296Z,18.63
2022-11-12T20:32:55.629Z,19.73
2022-11-12T20:35:40.820Z,16.80
2022-11-12T20:38:26.248Z,16.50
2022-11-12T20:41:17.223Z,16.50
2022-11-12T20:44:02.707Z,14.97
2022-11-12T20:46:47.778Z,13.93
2022-11-12T20:49:33.084Z,14.33
2022-11-12T20:52:18.608Z,15.27
2022-11-12T20:55:04.185Z,15.53
2022-11-12T20:57:49.242Z,17.47
2022-11-12T21:00:34.107Z,16.33
2022-11-12T21:03:19.387Z,17.60
2022-11-12T21:06:06.960Z,18.53
2022-11-12T21:08:51.992Z,18.67
2022-11-12T21:11:37.256Z,25.83
2022-11-12T21:14:22.456Z,35.17
2022-11-12T21:17:07.646Z,26.10
2022-11-12T21:19:52.958Z,22.80
2022-11-12T21:22:38.372Z,24.03
2022-11-12T21:25:23.771Z,20.87
2022-11-12T21:28:09.102Z,19.20
2022-11-12T21:30:55.216Z,21.83
2022-11-12T21:33:40.333Z,20.50
2022-11-12T21:36:27.513Z,16.63
2022-11-12T21:39:12.560Z,15.90
2022-11-12T21:41:57.736Z,17.73
2022-11-12T21:44:42.954Z,19.00
2022-11-12T21:47:29.007Z,17.03
2022-11-12T21:50:14.286Z,15.77
2022-11-12T21:52:59.598Z,16.80
2022-11-12T21:55:45.000Z,15.70
2022-11-12T21:58:30.658Z,16.43
2022-11-12T22:01:25.313Z,15.30
2022-11-12T22:04:15.484Z,14.83
2022-11-12T22:07:04.096Z,15.53
2022-11-12T22:09:52.525Z,15.53
2022-11-12T22:12:58.612Z,15.33
2022-11-12T22:15:46.905Z,14.43
2022-11-12T22:18:34.269Z,14.20
2022-11-12T22:21:22.034Z,15.50
2022-11-12T22:24:07.473Z,14.90
2022-11-12T22:26:52.574Z,15.73
2022-11-12T22:29:37.840Z,15.13
2022-11-12T22:32:23.154Z,14.93
2022-11-12T22:35:08.946Z,17.13
2022-11-12T22:37:54.764Z,13.80
2022-11-12T22:40:40.038Z,14.90
2022-11-12T22:43:25.173Z,15.07
2022-11-12T22:46:15.394Z,14.97
2022-11-12T22:49:01.510Z,14.67
2022-11-12T22:51:46.556Z,13.30
2022-11-12T22:54:31.805Z,14.13
2022-11-12T22:57:17.240Z,14.40
2022-11-12T23:00:02.682Z,13.13
2022-11-12T23:02:47.944Z,14.40
2022-11-12T23:05:33.122Z,14.60
2022-11-12T23:08:18.357Z,13.60
2022-11-12T23:11:05.565Z,13.13
2022-11-12T23:13:50.647Z,13.60
2022-11-12T23:16:36.066Z,13.77
2022-11-12T23:19:21.365Z,14.23
2022-11-12T23:22:08.192Z,14.03
2022-11-12T23:24:53.605Z,13.67
2022-11-12T23:27:38.757Z,12.93
2022-11-12T23:30:23.988Z,15.27
2022-11-12T23:33:09.164Z,13.17
2022-11-12T23:35:54.416Z,18.30
2022-11-12T23:38:39.765Z,14.33
2022-11-12T23:41:26.223Z,14.00
2022-11-12T23:44:11.495Z,16.67
2022-11-12T23:46:56.686Z,13.83
2022-11-12T23:49:41.924Z,15.07
2022-11-12T23:52:27.293Z,15.57
2022-11-12T23:55:12.417Z,18.40
2022-11-12T23:57:57.838Z,17.83
